Darstellungsparameter: Aktuell verwendete Einstellungen:
Skalierung der Graphiken ... ?
xyx+y,   Skalierungsfaktor:      Skalierung: Modus: x, Faktor: 1
Darstellungszeitraum ... ?
Vom - - bis: - -   Zeitraum: 06.10.2016 - 06.10.2016
Min/Max/Avg-Anzeige ... ?
Zeige MMA aktuell
Zeige MMA Monat
Zeige MMA alles
Zeige --A aktuell
Zeige --A Monat
Zeige --A alles
Keine MMA-Anzeige
MMA:
Average (ber die Originaldaten)
MMA-Basis: 06.10.2016 - 06.10.2016
Quicknavigation für Darstellung... ?
Tage:      1T, 2T, 3T, 5T -1T -2T -3T -5T +1T +2T +3T +5T
Wochen: 1W, 2W, 3W -1W -2W -3W +1W +2W +3W
Monate: 1M, 3M, 6M -1M -3M -6M +1M +3M +6M
Jahre:    1J, 3J, 5J, 10J -1J -3J -5J -10J +1J +3J +5J +10J
Nutze für die Darstellung ... ?
Originaldaten oder Mittelwerte auf ...
Stundenbasis Tagesbasis Wochenbasis
Monatsbasis Jahresbasis      Datenbasis: Original-Daten
Darstellen als:
Statistik (Auto) Statistik J:M      Darstellung:
Zur Graphik,    zurück zur Übersicht aller Sensoren.
 
Tabellarische Datenbersicht: ?
 
Sensor: Nr:Datum:Temp:Abs-Feuchte:Windchill:Wind:
Aussen-T/F 1 06-10-2016 00:00:00 6.5 C 6.6 g/m*3 6.5 C 0 km/h
2 06-10-2016 00:05:00 6.4 C 6.56 g/m*3 6.4 C 0 km/h
3 06-10-2016 00:10:00 6.3 C 6.51 g/m*3 6.3 C 0 km/h
4 06-10-2016 00:15:00 6.2 C 6.47 g/m*3 6.2 C 0 km/h
5 06-10-2016 00:20:00 6.1 C 6.5 g/m*3 6.1 C 0 km/h
6 06-10-2016 00:25:00 5.9 C 6.42 g/m*3 5.9 C 0 km/h
7 06-10-2016 00:30:00 5.9 C 6.42 g/m*3 5.9 C 0 km/h
8 06-10-2016 00:35:00 5.9 C 6.49 g/m*3 5.9 C 0 km/h
9 06-10-2016 00:40:00 5.8 C 6.45 g/m*3 5.8 C 0 km/h
10 06-10-2016 00:45:00 5.8 C 6.45 g/m*3 5.8 C 0 km/h
11 06-10-2016 00:50:00 5.7 C 6.4 g/m*3 5.7 C 0 km/h
12 06-10-2016 00:55:00 5.6 C 6.36 g/m*3 5.6 C 0 km/h
13 06-10-2016 01:00:00 5.6 C 6.43 g/m*3 5.6 C 0 km/h
14 06-10-2016 01:05:00 5.6 C 6.43 g/m*3 5.6 C 0 km/h
15 06-10-2016 01:10:00 5.5 C 6.39 g/m*3 5.5 C 0 km/h
16 06-10-2016 01:15:00 5.5 C 6.39 g/m*3 5.5 C 0 km/h
17 06-10-2016 01:20:00 5.5 C 6.39 g/m*3 5.5 C 0 km/h
18 06-10-2016 01:25:00 5.5 C 6.39 g/m*3 5.5 C 0 km/h
19 06-10-2016 01:30:00 5.5 C 6.39 g/m*3 5.5 C 0 km/h
20 06-10-2016 01:35:00 5.6 C 6.43 g/m*3 5.6 C 0 km/h
21 06-10-2016 01:40:00 5.6 C 6.43 g/m*3 5.6 C 0 km/h
22 06-10-2016 01:45:00 5.6 C 6.43 g/m*3 5.6 C 0 km/h
23 06-10-2016 01:50:00 5.6 C 6.43 g/m*3 5.6 C 0 km/h
24 06-10-2016 01:55:00 5.6 C 6.43 g/m*3 5.6 C 0 km/h
25 06-10-2016 02:00:00 5.6 C 6.43 g/m*3 5.6 C 0 km/h
Sensor: Nr:Datum:Temp:Abs-Feuchte:Windchill:Wind:
Aussen-T/F 26 06-10-2016 02:05:00 5.6 C 6.43 g/m*3 5.6 C 0 km/h
27 06-10-2016 02:10:00 5.5 C 6.39 g/m*3 5.5 C 0 km/h
28 06-10-2016 02:15:00 5.5 C 6.39 g/m*3 5.5 C 0 km/h
29 06-10-2016 02:20:00 5.4 C 6.35 g/m*3 5.4 C 0 km/h
30 06-10-2016 02:25:00 5.4 C 6.35 g/m*3 5.4 C 0 km/h
31 06-10-2016 02:30:00 5.4 C 6.35 g/m*3 5.4 C 0 km/h
32 06-10-2016 02:35:00 5.3 C 6.31 g/m*3 5.3 C 0 km/h
33 06-10-2016 02:40:00 5.3 C 6.31 g/m*3 5.3 C 0 km/h
34 06-10-2016 02:45:00 5.3 C 6.31 g/m*3 5.3 C 0 km/h
35 06-10-2016 02:50:00 5.3 C 6.38 g/m*3 5.3 C 0 km/h
36 06-10-2016 02:55:00 5.3 C 6.38 g/m*3 5.3 C 0 km/h
37 06-10-2016 03:00:00 5.3 C 6.45 g/m*3 5.3 C 0 km/h
38 06-10-2016 03:05:00 5.5 C 6.53 g/m*3 5.5 C 0 km/h
39 06-10-2016 03:10:00 5.7 C 6.62 g/m*3 5.7 C 0 km/h
40 06-10-2016 03:15:00 5.8 C 6.66 g/m*3 5.8 C 0 km/h
41 06-10-2016 03:20:00 5.8 C 6.66 g/m*3 5.8 C 0 km/h
42 06-10-2016 03:25:00 5.9 C 6.71 g/m*3 5.9 C 0 km/h
43 06-10-2016 03:30:00 5.9 C 6.71 g/m*3 5.9 C 0 km/h
44 06-10-2016 03:35:00 5.9 C 6.63 g/m*3 5.9 C 0 km/h
45 06-10-2016 03:40:00 5.9 C 6.63 g/m*3 5.9 C 0 km/h
46 06-10-2016 03:45:00 5.9 C 6.63 g/m*3 5.9 C 0 km/h
47 06-10-2016 03:50:00 6 C 6.68 g/m*3 6 C 0 km/h
48 06-10-2016 03:55:00 6 C 6.68 g/m*3 6 C 0 km/h
49 06-10-2016 04:00:00 6 C 6.68 g/m*3 6 C 0 km/h
50 06-10-2016 04:05:00 6 C 6.68 g/m*3 6 C 0 km/h
Sensor: Nr:Datum:Temp:Abs-Feuchte:Windchill:Wind:
Aussen-T/F 51 06-10-2016 04:10:00 5.9 C 6.56 g/m*3 5.9 C 0 km/h
52 06-10-2016 04:15:00 5.9 C 6.56 g/m*3 5.9 C 0 km/h
53 06-10-2016 04:20:00 5.8 C 6.52 g/m*3 5.8 C 1.6 km/h
54 06-10-2016 04:25:00 5.8 C 6.52 g/m*3 5.8 C 0 km/h
55 06-10-2016 04:30:00 5.8 C 6.52 g/m*3 5.8 C 0 km/h
56 06-10-2016 04:35:00 5.7 C 6.48 g/m*3 5.7 C 0 km/h
57 06-10-2016 04:40:00 5.7 C 6.48 g/m*3 5.7 C 0 km/h
58 06-10-2016 04:45:00 5.6 C 6.43 g/m*3 5.6 C 0 km/h
59 06-10-2016 04:50:00 5.6 C 6.43 g/m*3 5.6 C 0 km/h
60 06-10-2016 04:55:00 5.4 C 6.35 g/m*3 5.4 C 0 km/h
61 06-10-2016 05:00:00 5.3 C 6.31 g/m*3 5.3 C 0 km/h
62 06-10-2016 05:05:00 5.2 C 6.27 g/m*3 5.2 C 0 km/h
63 06-10-2016 05:10:00 5.2 C 6.27 g/m*3 5.2 C 0 km/h
64 06-10-2016 05:15:00 5.1 C 6.22 g/m*3 5.1 C 0 km/h
65 06-10-2016 05:20:00 5.1 C 6.29 g/m*3 5.1 C 0 km/h
66 06-10-2016 05:25:00 4.9 C 6.14 g/m*3 4.9 C 0 km/h
67 06-10-2016 05:30:00 4.9 C 6.14 g/m*3 4.9 C 0 km/h
68 06-10-2016 05:35:00 4.8 C 6.17 g/m*3 4.8 C 0 km/h
69 06-10-2016 05:40:00 4.8 C 6.17 g/m*3 4.8 C 0 km/h
70 06-10-2016 05:45:00 4.7 C 6.13 g/m*3 4.7 C 0 km/h
71 06-10-2016 05:50:00 4.7 C 6.13 g/m*3 4.7 C 0 km/h
72 06-10-2016 05:55:00 4.7 C 6.13 g/m*3 4.7 C 0 km/h
73 06-10-2016 06:00:00 4.6 C 6.09 g/m*3 4.6 C 0 km/h
74 06-10-2016 06:05:00 4.6 C 6.09 g/m*3 4.6 C 0 km/h
75 06-10-2016 06:10:00 4.5 C 6.11 g/m*3 4.5 C 0 km/h
Sensor: Nr:Datum:Temp:Abs-Feuchte:Windchill:Wind:
Aussen-T/F 76 06-10-2016 06:15:00 4.4 C 6.07 g/m*3 4.4 C 0 km/h
77 06-10-2016 06:20:00 4.4 C 6.07 g/m*3 4.4 C 0 km/h
78 06-10-2016 06:25:00 4.4 C 6.07 g/m*3 4.4 C 1.6 km/h
79 06-10-2016 06:30:00 4.4 C 6.07 g/m*3 4.4 C 0 km/h
80 06-10-2016 06:35:00 4.4 C 6.07 g/m*3 4.4 C 0 km/h
81 06-10-2016 06:40:00 4.3 C 6.03 g/m*3 4.3 C 0 km/h
82 06-10-2016 06:45:00 4.3 C 6.03 g/m*3 4.3 C 0 km/h
83 06-10-2016 06:50:00 4.3 C 6.03 g/m*3 4.3 C 0 km/h
84 06-10-2016 06:55:00 4.2 C 6.06 g/m*3 4.2 C 0 km/h
85 06-10-2016 07:00:00 4.2 C 6.06 g/m*3 4.2 C 0 km/h
86 06-10-2016 07:05:00 4.2 C 6.06 g/m*3 4.2 C 0 km/h
87 06-10-2016 07:10:00 4.2 C 6.06 g/m*3 4.2 C 0 km/h
88 06-10-2016 07:15:00 4.3 C 6.1 g/m*3 4.3 C 1.6 km/h
89 06-10-2016 07:20:00 4.3 C 6.1 g/m*3 4.3 C 0 km/h
90 06-10-2016 07:25:00 4.3 C 6.1 g/m*3 4.3 C 0 km/h
91 06-10-2016 07:30:00 4.2 C 6.06 g/m*3 4.2 C 0 km/h
92 06-10-2016 07:35:00 4.2 C 6.06 g/m*3 4.2 C 0 km/h
93 06-10-2016 07:40:00 4.1 C 6.02 g/m*3 4.1 C 0 km/h
94 06-10-2016 07:45:00 4.1 C 6.02 g/m*3 4.1 C 3.2 km/h
95 06-10-2016 07:50:00 4 C 5.98 g/m*3 4 C 3.2 km/h
96 06-10-2016 07:55:00 4 C 5.98 g/m*3 4 C 0 km/h
97 06-10-2016 08:00:00 3.9 C 5.94 g/m*3 3.9 C 0 km/h
98 06-10-2016 08:05:00 3.9 C 5.94 g/m*3 3.9 C 1.6 km/h
99 06-10-2016 08:10:00 4 C 5.98 g/m*3 4 C 0 km/h
100 06-10-2016 08:15:00 4 C 5.98 g/m*3 4 C 1.6 km/h
Sensor: Nr:Datum:Temp:Abs-Feuchte:Windchill:Wind:
Aussen-T/F 101 06-10-2016 08:20:00 4.1 C 6.02 g/m*3 4.1 C 0 km/h
102 06-10-2016 08:25:00 4.1 C 6.02 g/m*3 4.1 C 0 km/h
103 06-10-2016 08:30:00 4.2 C 6.12 g/m*3 4.2 C 0 km/h
104 06-10-2016 08:35:00 4.2 C 6.12 g/m*3 4.2 C 0 km/h
105 06-10-2016 08:40:00 4.2 C 6.12 g/m*3 4.2 C 0 km/h
106 06-10-2016 08:45:00 4.2 C 6.12 g/m*3 4.2 C 0 km/h
107 06-10-2016 08:50:00 4.3 C 6.16 g/m*3 4.3 C 0 km/h
108 06-10-2016 08:55:00 4.3 C 6.16 g/m*3 4.3 C 0 km/h
109 06-10-2016 09:00:00 4.3 C 6.16 g/m*3 4.3 C 0 km/h
110 06-10-2016 09:05:00 4.3 C 6.16 g/m*3 4.3 C 0 km/h
111 06-10-2016 09:10:00 4.4 C 6.2 g/m*3 4.4 C 0 km/h
112 06-10-2016 09:15:00 4.4 C 6.2 g/m*3 4.4 C 0 km/h
113 06-10-2016 09:20:00 4.5 C 6.24 g/m*3 4.5 C 0 km/h
114 06-10-2016 09:25:00 4.6 C 6.29 g/m*3 4.6 C 0 km/h
115 06-10-2016 09:30:00 4.7 C 6.33 g/m*3 4.7 C 0 km/h
116 06-10-2016 09:35:00 4.9 C 6.41 g/m*3 4.9 C 0 km/h
117 06-10-2016 09:40:00 5.1 C 6.5 g/m*3 5.1 C 0 km/h
118 06-10-2016 09:45:00 5.3 C 6.65 g/m*3 5.3 C 0 km/h
119 06-10-2016 09:50:00 5.4 C 6.63 g/m*3 5.4 C 0 km/h
120 06-10-2016 09:55:00 5.6 C 6.72 g/m*3 5.6 C 0 km/h
121 06-10-2016 10:00:00 5.7 C 6.76 g/m*3 5.7 C 0 km/h
122 06-10-2016 10:05:00 5.7 C 6.76 g/m*3 5.7 C 0 km/h
123 06-10-2016 10:10:00 5.8 C 6.81 g/m*3 5.8 C 0 km/h
124 06-10-2016 10:15:00 5.9 C 6.85 g/m*3 5.9 C 1.6 km/h
125 06-10-2016 10:20:00 6.1 C 6.94 g/m*3 6.1 C 3.2 km/h
Sensor: Nr:Datum:Temp:Abs-Feuchte:Windchill:Wind:
Aussen-T/F 126 06-10-2016 10:25:00 6.1 C 6.87 g/m*3 6.1 C 3.2 km/h
127 06-10-2016 10:30:00 6.2 C 6.91 g/m*3 6.2 C 1.6 km/h
128 06-10-2016 10:35:00 6.3 C 6.88 g/m*3 6.3 C 3.2 km/h
129 06-10-2016 10:40:00 6.4 C 6.93 g/m*3 6.4 C 0 km/h
130 06-10-2016 10:45:00 6.4 C 6.93 g/m*3 6.4 C 1.6 km/h
131 06-10-2016 10:50:00 6.6 C 7.02 g/m*3 6.6 C 1.6 km/h
132 06-10-2016 10:55:00 6.6 C 6.95 g/m*3 6.6 C 3.2 km/h
133 06-10-2016 11:00:00 6.7 C 6.99 g/m*3 6.7 C 1.6 km/h
134 06-10-2016 11:05:00 6.9 C 7.08 g/m*3 6.9 C 1.6 km/h
135 06-10-2016 11:10:00 7 C 7.05 g/m*3 7 C 1.6 km/h
136 06-10-2016 11:15:00 7.1 C 7.02 g/m*3 7.1 C 3.2 km/h
137 06-10-2016 11:20:00 7.2 C 6.99 g/m*3 7.2 C 3.2 km/h
138 06-10-2016 11:25:00 7.3 C 7.03 g/m*3 7.3 C 3.2 km/h
139 06-10-2016 11:30:00 7.3 C 7.03 g/m*3 7.3 C 3.2 km/h
140 06-10-2016 11:35:00 7.4 C 7.08 g/m*3 7.4 C 3.2 km/h
141 06-10-2016 11:40:00 7.5 C 7.12 g/m*3 7.5 C 3.2 km/h
142 06-10-2016 11:45:00 7.6 C 7.17 g/m*3 7.6 C 1.6 km/h
143 06-10-2016 11:50:00 7.6 C 7.17 g/m*3 7.6 C 1.6 km/h
144 06-10-2016 11:55:00 7.7 C 7.22 g/m*3 7.7 C 1.6 km/h
145 06-10-2016 12:00:00 7.8 C 7.1 g/m*3 7.8 C 1.6 km/h
146 06-10-2016 12:05:00 7.8 C 7.1 g/m*3 7.8 C 1.6 km/h
147 06-10-2016 12:10:00 7.9 C 7.23 g/m*3 7.9 C 0 km/h
148 06-10-2016 12:15:00 8.1 C 7.24 g/m*3 8.1 C 4.8 km/h
149 06-10-2016 12:20:00 8.3 C 7.33 g/m*3 8.3 C 0 km/h
150 06-10-2016 12:25:00 8.4 C 7.47 g/m*3 8.4 C 1.6 km/h
Sensor: Nr:Datum:Temp:Abs-Feuchte:Windchill:Wind:
Aussen-T/F 151 06-10-2016 12:30:00 8.7 C 7.52 g/m*3 8.7 C 1.6 km/h
152 06-10-2016 12:35:00 8.9 C 7.71 g/m*3 8.9 C 1.6 km/h
153 06-10-2016 12:40:00 9.1 C 7.54 g/m*3 9.1 C 4.8 km/h
154 06-10-2016 12:45:00 9.1 C 7.54 g/m*3 9.1 C 1.6 km/h
155 06-10-2016 12:50:00 9.2 C 7.59 g/m*3 9.2 C 1.6 km/h
156 06-10-2016 12:55:00 9.3 C 7.64 g/m*3 9.3 C 1.6 km/h
157 06-10-2016 13:00:00 9.4 C 7.6 g/m*3 9.4 C 0 km/h
158 06-10-2016 13:05:00 9.4 C 7.6 g/m*3 9.4 C 1.6 km/h
159 06-10-2016 13:10:00 9.5 C 7.74 g/m*3 9.5 C 0 km/h
160 06-10-2016 13:15:00 9.7 C 7.84 g/m*3 9.7 C 1.6 km/h
161 06-10-2016 13:20:00 9.7 C 7.74 g/m*3 9.7 C 0 km/h
162 06-10-2016 13:25:00 9.9 C 7.84 g/m*3 9.9 C 1.6 km/h
163 06-10-2016 13:30:00 9.9 C 7.75 g/m*3 9.9 C 3.2 km/h
164 06-10-2016 13:35:00 9.9 C 7.56 g/m*3 9.9 C 3.2 km/h
165 06-10-2016 13:40:00 10 C 7.8 g/m*3 10 C 0 km/h
166 06-10-2016 13:45:00 10.1 C 7.75 g/m*3 10.1 C 0 km/h
167 06-10-2016 13:50:00 10.2 C 7.9 g/m*3 10.2 C 0 km/h
168 06-10-2016 13:55:00 10.3 C 7.95 g/m*3 10.3 C 3.2 km/h
169 06-10-2016 14:00:00 10.6 C 8.1 g/m*3 10.6 C 1.6 km/h
170 06-10-2016 14:05:00 10.6 C 7.91 g/m*3 10.6 C 0 km/h
171 06-10-2016 14:10:00 10.7 C 7.96 g/m*3 10.7 C 3.2 km/h
172 06-10-2016 14:15:00 10.8 C 8.11 g/m*3 10.8 C 3.2 km/h
173 06-10-2016 14:20:00 10.9 C 8.26 g/m*3 10.9 C 1.6 km/h
174 06-10-2016 14:25:00 11.1 C 8.26 g/m*3 11.1 C 1.6 km/h
175 06-10-2016 14:30:00 11.2 C 8.41 g/m*3 11.2 C 3.2 km/h
Sensor: Nr:Datum:Temp:Abs-Feuchte:Windchill:Wind:
Aussen-T/F 176 06-10-2016 14:35:00 11.2 C 8.21 g/m*3 11.2 C 0 km/h
177 06-10-2016 14:40:00 11.2 C 8.21 g/m*3 11.2 C 0 km/h
178 06-10-2016 14:45:00 11.2 C 8.21 g/m*3 11.2 C 0 km/h
179 06-10-2016 14:50:00 11.2 C 8.11 g/m*3 11.2 C 1.6 km/h
180 06-10-2016 14:55:00 11.2 C 8.11 g/m*3 11.2 C 1.6 km/h
181 06-10-2016 15:00:00 11.2 C 8.31 g/m*3 11.2 C 0 km/h
182 06-10-2016 15:05:00 11.3 C 8.36 g/m*3 11.3 C 1.6 km/h
183 06-10-2016 15:10:00 11.5 C 8.47 g/m*3 11.5 C 3.2 km/h
184 06-10-2016 15:15:00 11.7 C 8.47 g/m*3 11.7 C 1.6 km/h
185 06-10-2016 15:20:00 11.8 C 8.42 g/m*3 11.8 C 1.6 km/h
186 06-10-2016 15:25:00 11.9 C 8.37 g/m*3 11.9 C 6.4 km/h
187 06-10-2016 15:30:00 12 C 8.53 g/m*3 12 C 3.2 km/h
188 06-10-2016 15:35:00 12.1 C 8.47 g/m*3 12.1 C 1.6 km/h
189 06-10-2016 15:40:00 12.1 C 8.47 g/m*3 12.1 C 0 km/h
190 06-10-2016 15:45:00 12.1 C 8.36 g/m*3 12.1 C 3.2 km/h
191 06-10-2016 15:50:00 12.1 C 8.47 g/m*3 12.1 C 1.6 km/h
192 06-10-2016 15:55:00 12.2 C 8.63 g/m*3 12.2 C 3.2 km/h
193 06-10-2016 16:00:00 12.3 C 8.58 g/m*3 12.3 C 0 km/h
194 06-10-2016 16:05:00 12.4 C 8.52 g/m*3 12.4 C 4.8 km/h
195 06-10-2016 16:10:00 12.4 C 8.41 g/m*3 12.4 C 8.1 km/h
196 06-10-2016 16:15:00 12.4 C 8.41 g/m*3 12.4 C 9.7 km/h
197 06-10-2016 16:20:00 12.6 C 8.63 g/m*3 12.6 C 9.7 km/h
198 06-10-2016 16:25:00 12.6 C 8.74 g/m*3 12.6 C 3.2 km/h
199 06-10-2016 16:30:00 12.6 C 8.63 g/m*3 12.6 C 6.4 km/h
200 06-10-2016 16:35:00 12.6 C 8.63 g/m*3 12.6 C 4.8 km/h
Sensor: Nr:Datum:Temp:Abs-Feuchte:Windchill:Wind:
Aussen-T/F 201 06-10-2016 16:40:00 12.4 C 8.52 g/m*3 12.4 C 9.7 km/h
202 06-10-2016 16:45:00 12.4 C 8.63 g/m*3 12.4 C 3.2 km/h
203 06-10-2016 16:50:00 12.3 C 8.58 g/m*3 12.3 C 9.7 km/h
204 06-10-2016 16:55:00 12.2 C 8.52 g/m*3 12.2 C 12.9 km/h
205 06-10-2016 17:00:00 12.1 C 8.47 g/m*3 12.1 C 8.1 km/h
206 06-10-2016 17:05:00 11.9 C 8.47 g/m*3 11.9 C 8.1 km/h
207 06-10-2016 17:10:00 11.8 C 8.42 g/m*3 11.8 C 12.9 km/h
208 06-10-2016 17:15:00 11.7 C 8.37 g/m*3 11.7 C 8.1 km/h
209 06-10-2016 17:20:00 11.7 C 8.37 g/m*3 11.7 C 9.7 km/h
210 06-10-2016 17:25:00 11.6 C 8.42 g/m*3 11.6 C 6.4 km/h
211 06-10-2016 17:30:00 11.5 C 8.37 g/m*3 11.5 C 8.1 km/h
212 06-10-2016 17:35:00 11.4 C 8.31 g/m*3 11.4 C 6.4 km/h
213 06-10-2016 17:40:00 11.4 C 8.31 g/m*3 11.4 C 8.1 km/h
214 06-10-2016 17:45:00 11.3 C 8.36 g/m*3 11.3 C 8.1 km/h
215 06-10-2016 17:50:00 11.3 C 8.26 g/m*3 11.3 C 8.1 km/h
216 06-10-2016 17:55:00 11.2 C 8.31 g/m*3 11.2 C 4.8 km/h
217 06-10-2016 18:00:00 11.2 C 8.31 g/m*3 11.2 C 8.1 km/h
218 06-10-2016 18:05:00 11.2 C 8.31 g/m*3 11.2 C 6.4 km/h
219 06-10-2016 18:10:00 11.1 C 8.36 g/m*3 11.1 C 6.4 km/h
220 06-10-2016 18:15:00 11.1 C 8.36 g/m*3 11.1 C 4.8 km/h
221 06-10-2016 18:20:00 11.1 C 8.36 g/m*3 11.1 C 3.2 km/h
222 06-10-2016 18:25:00 11 C 8.31 g/m*3 11 C 3.2 km/h
223 06-10-2016 18:30:00 11 C 8.31 g/m*3 11 C 3.2 km/h
224 06-10-2016 18:35:00 10.9 C 8.36 g/m*3 10.9 C 1.6 km/h
225 06-10-2016 18:40:00 10.9 C 8.26 g/m*3 9.28 C 12.9 km/h
Sensor: Nr:Datum:Temp:Abs-Feuchte:Windchill:Wind:
Aussen-T/F 226 06-10-2016 18:45:00 10.9 C 8.26 g/m*3 9.51 C 11.3 km/h
227 06-10-2016 18:50:00 10.9 C 8.36 g/m*3 10.9 C 3.2 km/h
228 06-10-2016 18:55:00 10.8 C 8.3 g/m*3 10.8 C 3.2 km/h
229 06-10-2016 19:00:00 10.8 C 8.3 g/m*3 10.8 C 0 km/h
230 06-10-2016 19:05:00 10.8 C 8.3 g/m*3 10.8 C 3.2 km/h
231 06-10-2016 19:10:00 10.7 C 8.25 g/m*3 10.7 C 3.2 km/h
232 06-10-2016 19:15:00 10.7 C 8.25 g/m*3 10.7 C 4.8 km/h
233 06-10-2016 19:20:00 10.7 C 8.35 g/m*3 10.7 C 4.8 km/h
234 06-10-2016 19:25:00 10.7 C 8.35 g/m*3 10.18 C 6.4 km/h
235 06-10-2016 19:30:00 10.6 C 8.3 g/m*3 10.6 C 4.8 km/h
236 06-10-2016 19:35:00 10.6 C 8.2 g/m*3 10.06 C 6.4 km/h
237 06-10-2016 19:40:00 10.6 C 8.3 g/m*3 10.06 C 6.4 km/h
238 06-10-2016 19:45:00 10.6 C 8.3 g/m*3 10.6 C 4.8 km/h
239 06-10-2016 19:50:00 10.5 C 8.24 g/m*3 10.5 C 3.2 km/h
240 06-10-2016 19:55:00 10.5 C 8.24 g/m*3 10.5 C 4.8 km/h
241 06-10-2016 20:00:00 10.4 C 8.19 g/m*3 10.4 C 1.6 km/h
242 06-10-2016 20:05:00 10.4 C 8.29 g/m*3 10.4 C 1.6 km/h
243 06-10-2016 20:10:00 10.4 C 8.29 g/m*3 10.4 C 3.2 km/h
244 06-10-2016 20:15:00 10.4 C 8.29 g/m*3 10.4 C 0 km/h
245 06-10-2016 20:20:00 10.4 C 8.29 g/m*3 10.4 C 4.8 km/h
246 06-10-2016 20:25:00 10.3 C 8.24 g/m*3 10.3 C 1.6 km/h
247 06-10-2016 20:30:00 10.3 C 8.24 g/m*3 10.3 C 1.6 km/h
248 06-10-2016 20:35:00 10.3 C 8.24 g/m*3 10.3 C 4.8 km/h
249 06-10-2016 20:40:00 10.3 C 8.24 g/m*3 10.3 C 3.2 km/h
250 06-10-2016 20:45:00 10.3 C 8.24 g/m*3 10.3 C 1.6 km/h
Sensor: Nr:Datum:Temp:Abs-Feuchte:Windchill:Wind:
Aussen-T/F 251 06-10-2016 20:50:00 10.3 C 8.33 g/m*3 10.3 C 1.6 km/h
252 06-10-2016 20:55:00 10.3 C 8.24 g/m*3 10.3 C 0 km/h
253 06-10-2016 21:00:00 10.3 C 8.33 g/m*3 10.3 C 1.6 km/h
254 06-10-2016 21:05:00 10.3 C 8.33 g/m*3 10.3 C 0 km/h
255 06-10-2016 21:10:00 10.3 C 8.33 g/m*3 10.3 C 0 km/h
256 06-10-2016 21:15:00 10.3 C 8.43 g/m*3 10.3 C 0 km/h
257 06-10-2016 21:20:00 10.3 C 8.43 g/m*3 10.3 C 0 km/h
258 06-10-2016 21:25:00 10.2 C 8.37 g/m*3 10.2 C 0 km/h
259 06-10-2016 21:30:00 10.2 C 8.37 g/m*3 10.2 C 0 km/h
260 06-10-2016 21:35:00 10.2 C 8.47 g/m*3 10.2 C 0 km/h
261 06-10-2016 21:40:00 10.1 C 8.42 g/m*3 10.1 C 0 km/h
262 06-10-2016 21:45:00 10.1 C 8.42 g/m*3 10.1 C 0 km/h
263 06-10-2016 21:50:00 10.1 C 8.42 g/m*3 10.1 C 0 km/h
264 06-10-2016 21:55:00 10.1 C 8.51 g/m*3 10.1 C 0 km/h
265 06-10-2016 22:00:00 10 C 8.46 g/m*3 10 C 0 km/h
266 06-10-2016 22:05:00 10 C 8.46 g/m*3 10 C 0 km/h
267 06-10-2016 22:10:00 9.9 C 8.4 g/m*3 9.9 C 0 km/h
268 06-10-2016 22:15:00 9.9 C 8.4 g/m*3 9.9 C 0 km/h
269 06-10-2016 22:20:00 9.9 C 8.4 g/m*3 9.9 C 0 km/h
270 06-10-2016 22:25:00 9.9 C 8.4 g/m*3 9.9 C 0 km/h
271 06-10-2016 22:30:00 9.9 C 8.5 g/m*3 9.9 C 0 km/h
272 06-10-2016 22:35:00 9.9 C 8.5 g/m*3 9.9 C 1.6 km/h
273 06-10-2016 22:40:00 9.9 C 8.5 g/m*3 9.9 C 0 km/h
274 06-10-2016 22:45:00 9.9 C 8.5 g/m*3 9.9 C 0 km/h
275 06-10-2016 22:50:00 9.9 C 8.5 g/m*3 9.9 C 0 km/h
Sensor: Nr:Datum:Temp:Abs-Feuchte:Windchill:Wind:
Aussen-T/F 276 06-10-2016 22:55:00 9.9 C 8.59 g/m*3 9.9 C 0 km/h
277 06-10-2016 23:00:00 9.9 C 8.59 g/m*3 9.9 C 0 km/h
278 06-10-2016 23:05:00 9.8 C 8.54 g/m*3 9.8 C 0 km/h
279 06-10-2016 23:10:00 9.8 C 8.54 g/m*3 9.8 C 0 km/h
280 06-10-2016 23:15:00 9.8 C 8.54 g/m*3 9.8 C 0 km/h
281 06-10-2016 23:20:00 9.8 C 8.54 g/m*3 9.8 C 0 km/h
282 06-10-2016 23:25:00 9.8 C 8.54 g/m*3 9.8 C 0 km/h
283 06-10-2016 23:30:00 9.8 C 8.54 g/m*3 9.8 C 0 km/h
284 06-10-2016 23:35:00 9.8 C 8.63 g/m*3 9.8 C 0 km/h
285 06-10-2016 23:40:00 9.8 C 8.63 g/m*3 9.8 C 0 km/h
286 06-10-2016 23:45:00 9.8 C 8.63 g/m*3 9.8 C 0 km/h
287 06-10-2016 23:50:00 9.8 C 8.63 g/m*3 9.8 C 0 km/h
288 06-10-2016 23:55:00 9.8 C 8.63 g/m*3 9.8 C 0 km/h

Legende:
   Min
   Max


Maximal/Minimal-Werte vom 06.10.2016 - 06.10.2016

Sensor Min Max Avg
Temp
(Aussen-T/F)
3.9 °C
06-10-2016  08:00:00
12.6 °C
06-10-2016  16:20:00
7.98 °C
Abs-Feuchte
(Aussen-T/F)
5.94 g/m*3
06-10-2016  08:00:00
8.74 g/m*3
06-10-2016  16:25:00
7.31 g/m*3
Windchill
(Aussen-T/F)
3.9 C
06-10-2016  08:00:00
12.6 C
06-10-2016  16:20:00
7.94 C

Die Daten stammen von einer Davis Vantage Pro 2 Wetter-Station und werden unter Linux mit der Software wview2wettercgi und aufbereitet. Alle Angaben erfolgen ohne Gewähr für ihre Vollständigkeit oder Richtigkeit.
Kontakt: Rainer Krienke krienke@uni-koblenz.de . Meine Webseiten an der Uni Koblenz oder privat.
Version: $Revision: 0.78 $